Nellis Air Force Base
KLSV : now visible

Airfield :











YOU CAN JOIN US ON...

 
LOGIN :

Register | Disclaimer

   EN    FR    IT 

 









Legend :    VFR   Marginal VFR   IFR   Intensive IFR   Very Intensive IFR
Visi :
Ceiling :
>= 8 km
>= 3000ft
5 to 8 km
1000 to 3000 ft
1500m to 5 km
500 to 1000 ft
800 to 1500m
200 to 500 ft
< 800m
< 200 ft
Symbols :   Thunderstorms  Fog  Heavy snow  Heavy precipitations  Wind > 20 kt






- Airport Elevation : 1870 ft


KLSV - Nellis Air Force Base

CURRENT METAR :
  • 281158Z AUTO 00000KT 10SM CLR 05/M03 A3023 RMK AO2 SLP233 T00511032 10108 20047 58004 $

EXPIRED METARs :
  • 281058Z AUTO 01003KT 10SM CLR 05/M03 A3024 RMK AO2 SLP237 T00521034 $
  • 280958Z AUTO 30004KT 10SM CLR 07/M03 A3026 RMK AO2 SLP242 T00701035 $

TAF TAF KLSV
Valid from the 28 at 07:00 until the 29 at 13:00 UTC


280700Z 2807/2913 36008KT 9999 SKC QNH3024INS
BECMG 2816/2817 12010G15KT 9999 SCT120 QNH3009INS
BECMG 2903/2904 35008KT 9999 FEW140 QNH3007INS TX17/2823Z TN06/2815Z



MET'MAP, your aeronautical weather chart ! - Copyright ORBIFLY December 2007 - Disclaimer

ORBIFLY MET'MAP TEAM :

Programming & Development : Alexandra Zaïnal
Concept & original design : Baudouin d'Aumeries
Assistance for programming : Marc-Olivier Méhu
Technical & hardware support : Manuel Goepfert

Contact : metmap@orbifly.com




SOURCES & CREDITS :

   NOAA       Earth
Advisory